Time;durP1;ratioP1;P1;durP2;ratioP2;P2;SDS_P1;SDS_P2;PMS_P1;PMS_P2;Temp;Humidity;BMP_temperature;BMP_pressure;BME280_temperature;BME280_humidity;BME280_pressure;Samples;Min_cycle;Max_cycle;Signal;HPM_P1;HPM_P2
2022/12/13 00:01:14;;;;;;;48.10;20.05;;;-4.30;99.90;;;;;;4977117;28;20123;-70
2022/12/13 00:03:39;;;;;;;46.28;22.67;;;-4.20;99.90;;;;;;4994190;28;20142;-71
2022/12/13 00:06:07;;;;;;;41.08;19.45;;;-4.20;99.90;;;;;;5009888;28;20046;-69
2022/12/13 00:08:32;;;;;;;45.92;18.83;;;-4.10;99.90;;;;;;5010923;28;20042;-69
2022/12/13 00:11:04;;;;;;;44.67;20.27;;;-4.20;99.90;;;;;;5010506;28;20053;-70
2022/12/13 00:13:29;;;;;;;46.28;20.13;;;-4.20;99.90;;;;;;5011625;28;20054;-70
2022/12/13 00:16:00;;;;;;;45.95;20.02;;;-4.20;99.90;;;;;;5010723;28;20050;-71
2022/12/13 00:18:26;;;;;;;47.35;19.95;;;-4.20;99.90;;;;;;5011314;28;20827;-70
2022/12/13 00:20:52;;;;;;;52.58;21.40;;;-4.20;99.90;;;;;;5010476;28;20098;-70
2022/12/13 00:23:19;;;;;;;43.60;20.92;;;-4.20;99.90;;;;;;5011289;28;20099;-71
2022/12/13 00:25:44;;;;;;;41.35;19.05;;;-4.20;99.90;;;;;;5010250;28;20034;-70
2022/12/13 00:28:10;;;;;;;42.75;19.15;;;-4.20;99.90;;;;;;5010291;28;20416;-71
2022/12/13 00:30:36;;;;;;;49.83;20.73;;;-4.20;99.90;;;;;;5010126;28;20053;-71
2022/12/13 00:33:02;;;;;;;47.97;20.95;;;-4.20;99.90;;;;;;5010159;28;20045;-70
2022/12/13 00:35:27;;;;;;;43.97;20.80;;;-4.20;99.90;;;;;;5011253;28;20168;-70
2022/12/13 00:37:53;;;;;;;45.70;20.42;;;-4.20;99.90;;;;;;5010045;28;20534;-69
2022/12/13 00:40:20;;;;;;;47.85;20.77;;;-4.20;99.90;;;;;;4992087;28;20046;-68
2022/12/13 00:42:45;;;;;;;40.78;18.40;;;-4.20;99.90;;;;;;5010204;28;20140;-71
2022/12/13 00:45:11;;;;;;;43.05;21.13;;;-4.20;99.90;;;;;;5023185;28;20155;-69
2022/12/13 00:47:37;;;;;;;44.40;20.88;;;-4.20;99.90;;;;;;5029657;28;20049;-70
2022/12/13 00:50:04;;;;;;;50.13;20.15;;;-4.20;99.90;;;;;;5029800;28;20044;-70
2022/12/13 00:52:29;;;;;;;42.63;19.65;;;-4.30;99.90;;;;;;5029752;28;20045;-70
2022/12/13 00:54:55;;;;;;;46.20;20.73;;;-4.30;99.90;;;;;;5009862;28;20054;-70
2022/12/13 00:57:20;;;;;;;42.92;20.23;;;-4.30;99.90;;;;;;5028752;28;20099;-70
2022/12/13 00:59:46;;;;;;;51.25;19.30;;;-4.30;99.90;;;;;;5029352;28;20053;-71
2022/12/13 01:02:12;;;;;;;42.40;19.27;;;-4.30;99.90;;;;;;5011499;28;20456;-69
2022/12/13 01:04:37;;;;;;;49.72;20.17;;;-4.30;99.90;;;;;;5027806;28;20046;-72
2022/12/13 01:07:03;;;;;;;40.75;20.30;;;-4.30;99.90;;;;;;5029443;28;20049;-70
2022/12/13 01:09:31;;;;;;;42.83;19.58;;;-4.30;99.90;;;;;;5011384;28;20058;-71
2022/12/13 01:11:58;;;;;;;43.55;19.77;;;-4.40;99.90;;;;;;5009744;28;20443;-71
2022/12/13 01:14:24;;;;;;;43.75;19.27;;;-4.40;99.90;;;;;;5011637;28;20053;-73
2022/12/13 01:16:50;;;;;;;40.85;19.20;;;-4.40;99.90;;;;;;5011084;28;20054;-71
2022/12/13 01:19:16;;;;;;;39.70;18.67;;;-4.40;99.90;;;;;;5029478;28;20041;-73
2022/12/13 01:21:41;;;;;;;46.25;20.25;;;-4.40;99.90;;;;;;5029208;28;20048;-75
2022/12/13 01:24:07;;;;;;;39.38;19.65;;;-4.30;99.90;;;;;;5009657;28;20049;-70
2022/12/13 01:26:33;;;;;;;40.20;20.27;;;-4.20;99.90;;;;;;5029242;28;20045;-72
2022/12/13 01:28:59;;;;;;;42.63;20.25;;;-4.40;99.90;;;;;;5028927;28;20467;-71
2022/12/13 01:31:25;;;;;;;42.55;19.98;;;-4.40;99.90;;;;;;5011756;28;20061;-75
2022/12/13 01:33:50;;;;;;;44.78;20.30;;;-4.40;99.90;;;;;;5027168;28;20399;-69
2022/12/13 01:36:18;;;;;;;38.13;18.25;;;-4.40;99.90;;;;;;5028895;28;20053;-71
2022/12/13 01:38:44;;;;;;;44.22;19.40;;;-4.40;99.90;;;;;;5011404;28;20787;-69
2022/12/13 01:41:16;;;;;;;46.72;20.63;;;-4.40;99.90;;;;;;5028726;28;20104;-69
2022/12/13 01:43:41;;;;;;;39.90;19.27;;;-4.40;99.90;;;;;;5027294;28;20053;-70
2022/12/13 01:46:09;;;;;;;42.90;18.98;;;-4.40;99.90;;;;;;5028991;28;20061;-70
2022/12/13 01:48:40;;;;;;;38.45;18.40;;;-4.40;99.90;;;;;;5028895;28;20124;-70
2022/12/13 01:51:08;;;;;;;37.05;17.88;;;-4.40;99.90;;;;;;5011346;28;20049;-70
2022/12/13 01:53:37;;;;;;;40.70;18.10;;;-4.40;99.90;;;;;;5027328;28;20058;-70
2022/12/13 01:56:09;;;;;;;45.63;19.63;;;-4.50;99.90;;;;;;5028869;28;20045;-70
2022/12/13 01:58:36;;;;;;;40.33;19.50;;;-4.50;99.90;;;;;;5028733;28;20053;-70
2022/12/13 02:01:02;;;;;;;37.10;17.88;;;-4.50;99.90;;;;;;5028876;28;20081;-70
2022/12/13 02:03:28;;;;;;;38.95;18.55;;;-4.60;99.90;;;;;;5010836;28;20049;-70
2022/12/13 02:06:08;;;;;;;38.80;18.92;;;-4.60;99.90;;;;;;5027370;28;20038;-70
2022/12/13 02:08:35;;;;;;;37.50;18.45;;;-4.60;99.90;;;;;;5029129;28;20094;-70
2022/12/13 02:11:02;;;;;;;36.50;17.88;;;-4.60;99.90;;;;;;5028779;28;20049;-69
2022/12/13 02:13:28;;;;;;;45.03;17.73;;;-4.60;99.90;;;;;;5011558;28;20484;-70
2022/12/13 02:16:18;;;;;;;36.75;18.17;;;-4.60;99.90;;;;;;5027349;28;20046;-69
2022/12/13 02:18:55;;;;;;;42.92;18.45;;;-4.70;99.90;;;;;;5011250;28;20056;-69
2022/12/13 02:21:36;;;;;;;37.50;17.48;;;-4.60;99.90;;;;;;5021029;28;20037;-70
2022/12/13 02:24:29;;;;;;;42.15;18.50;;;-4.60;99.90;;;;;;5009227;28;20548;-69
2022/12/13 02:27:27;;;;;;;39.80;18.25;;;-4.70;99.90;;;;;;5009763;28;20049;-70
2022/12/13 02:30:21;;;;;;;43.17;17.67;;;-4.70;99.90;;;;;;5011520;28;20104;-70
2022/12/13 02:33:01;;;;;;;34.30;17.20;;;-4.80;99.90;;;;;;4971032;28;20133;-77
2022/12/13 02:35:56;;;;;;;39.85;18.92;;;-4.80;99.90;;;;;;4954377;28;20071;-71
2022/12/13 02:38:48;;;;;;;47.83;18.77;;;-4.80;99.90;;;;;;4951466;29;20146;-72
2022/12/13 02:41:14;;;;;;;40.88;18.60;;;-4.80;99.90;;;;;;4929214;29;20082;-71
2022/12/13 02:43:49;;;;;;;37.50;17.27;;;-4.80;99.90;;;;;;4951552;29;20109;-71
2022/12/13 02:46:17;;;;;;;;;;;-4.90;99.90;;;;;;4952270;29;20058;-69
2022/12/13 02:48:44;;;;;;;42.97;17.03;;;-4.90;99.90;;;;;;4949697;28;19926;-71
2022/12/13 02:51:11;;;;;;;41.63;19.50;;;-4.90;99.90;;;;;;4954652;28;20127;-71
2022/12/13 02:53:40;;;;;;;49.80;19.27;;;-4.90;99.90;;;;;;4954611;28;20466;-74
2022/12/13 02:56:06;;;;;;;41.20;19.33;;;-4.90;99.90;;;;;;4970733;28;20062;-70
2022/12/13 02:58:35;;;;;;;43.72;20.40;;;-4.90;99.90;;;;;;4958501;28;20214;-70
2022/12/13 03:01:12;;;;;;;39.10;18.45;;;-4.90;99.90;;;;;;4964591;28;20108;-70
2022/12/13 03:04:02;;;;;;;37.03;17.30;;;-4.90;99.90;;;;;;4958318;28;20078;-70
2022/12/13 03:06:59;;;;;;;40.17;18.73;;;-4.90;99.90;;;;;;4952557;28;20142;-71
2022/12/13 03:09:52;;;;;;;42.28;19.17;;;-5.00;99.90;;;;;;4979658;28;20093;-70
2022/12/13 03:15:34;;;;;;;38.87;18.30;;;-4.90;99.90;;;;;;5031193;28;20045;-70
2022/12/13 03:18:14;;;;;;;37.57;16.73;;;-4.90;99.90;;;;;;5012036;28;20050;-69
2022/12/13 03:20:47;;;;;;;38.20;18.43;;;-4.90;99.90;;;;;;5003906;28;20057;-72
2022/12/13 03:23:14;;;;;;;37.03;16.67;;;-5.00;99.90;;;;;;4977796;28;20156;-71
2022/12/13 03:25:40;;;;;;;41.10;17.77;;;-5.00;99.90;;;;;;5011330;28;20049;-71
2022/12/13 03:28:06;;;;;;;38.90;17.33;;;-5.10;99.90;;;;;;5011221;28;20037;-70
2022/12/13 03:30:32;;;;;;;39.57;19.20;;;-5.10;99.90;;;;;;5017117;28;20049;-69
2022/12/13 03:32:59;;;;;;;37.03;17.33;;;-5.10;99.90;;;;;;5021055;28;20055;-71
2022/12/13 03:35:25;;;;;;;37.83;17.30;;;-5.10;99.90;;;;;;5012629;28;20099;-71
2022/12/13 03:37:51;;;;;;;40.63;19.40;;;-5.10;99.90;;;;;;5020944;28;20042;-72
2022/12/13 03:40:18;;;;;;;42.73;18.87;;;-5.10;99.90;;;;;;5010973;28;20060;-70
2022/12/13 03:42:44;;;;;;;37.43;18.27;;;-5.10;99.90;;;;;;4994276;28;20042;-71
2022/12/13 03:45:10;;;;;;;37.63;18.77;;;-5.10;99.90;;;;;;4978476;28;20056;-70
2022/12/13 03:47:35;;;;;;;39.37;17.40;;;-5.10;99.90;;;;;;4990128;28;20050;-70
2022/12/13 03:50:01;;;;;;;40.70;18.00;;;-5.10;99.90;;;;;;4998281;28;20757;-69
2022/12/13 03:52:27;;;;;;;39.30;17.83;;;-5.10;99.90;;;;;;5013846;28;20145;-73
2022/12/13 03:54:52;;;;;;;44.53;19.17;;;-5.10;99.90;;;;;;4990801;28;20053;-70
2022/12/13 03:57:18;;;;;;;43.07;19.17;;;-5.10;99.90;;;;;;5030135;28;20137;-75
2022/12/13 03:59:43;;;;;;;36.03;16.57;;;-5.10;99.90;;;;;;5024281;28;20068;-70
2022/12/13 04:02:09;;;;;;;37.27;18.37;;;-5.10;99.90;;;;;;5022992;28;20140;-70
2022/12/13 04:04:35;;;;;;;33.50;15.87;;;-5.10;99.90;;;;;;5018386;28;20412;-72
2022/12/13 04:07:00;;;;;;;33.80;16.27;;;-5.20;99.90;;;;;;5030604;28;20091;-71
2022/12/13 04:09:26;;;;;;;38.57;17.77;;;-5.20;99.90;;;;;;5030586;28;20080;-71
2022/12/13 04:14:36;;;;;;;34.20;16.20;;;-5.20;99.90;;;;;;5008144;28;20505;-70
2022/12/13 04:17:01;;;;;;;37.72;17.70;;;-5.30;99.90;;;;;;5029958;28;20048;-71
2022/12/13 04:19:27;;;;;;;37.00;16.93;;;-5.30;99.90;;;;;;5023410;28;20042;-70
2022/12/13 04:21:53;;;;;;;41.60;19.03;;;-5.30;99.90;;;;;;4988081;28;20485;-71
2022/12/13 04:24:19;;;;;;;47.33;17.10;;;-5.20;99.90;;;;;;5012301;28;20431;-77
2022/12/13 04:26:45;;;;;;;35.23;17.07;;;-5.20;99.90;;;;;;5011327;28;20579;-71
2022/12/13 04:29:14;;;;;;;34.20;17.43;;;-5.20;99.90;;;;;;5010043;28;20073;-75
2022/12/13 04:31:39;;;;;;;37.10;16.70;;;-5.30;99.90;;;;;;5029816;28;20056;-71
2022/12/13 04:34:05;;;;;;;34.03;17.10;;;-5.30;99.90;;;;;;5030366;28;20041;-70
2022/12/13 04:36:31;;;;;;;35.97;16.50;;;-5.20;99.90;;;;;;5009628;28;20057;-72
2022/12/13 04:38:56;;;;;;;34.30;17.63;;;-5.20;99.90;;;;;;5024635;28;20049;-75
2022/12/13 04:41:22;;;;;;;33.73;17.23;;;-5.20;99.90;;;;;;5010048;28;20091;-71
2022/12/13 04:43:52;;;;;;;36.00;16.80;;;-5.20;99.90;;;;;;4992413;28;20045;-71
2022/12/13 04:46:21;;;;;;;34.97;16.43;;;-5.20;99.90;;;;;;5010898;28;20091;-70
2022/12/13 04:48:47;;;;;;;35.23;16.47;;;-5.20;99.90;;;;;;5005155;28;20495;-70
2022/12/13 04:51:15;;;;;;;35.47;16.73;;;-5.20;99.90;;;;;;5008912;28;20092;-70
2022/12/13 04:53:40;;;;;;;34.37;16.67;;;-5.30;99.90;;;;;;5004433;28;20050;-73
2022/12/13 04:56:06;;;;;;;38.53;18.20;;;-5.30;99.90;;;;;;5010187;28;20041;-70
2022/12/13 04:58:32;;;;;;;37.50;17.20;;;-5.30;99.90;;;;;;5007172;28;20057;-70
2022/12/13 05:00:57;;;;;;;34.40;17.03;;;-5.30;99.90;;;;;;4993700;28;20362;-70
2022/12/13 05:03:23;;;;;;;39.57;17.03;;;-5.30;99.90;;;;;;5008645;28;20046;-70
2022/12/13 05:05:49;;;;;;;36.97;16.37;;;-5.20;99.90;;;;;;4992387;28;20050;-77
2022/12/13 05:08:15;;;;;;;35.53;17.30;;;-5.20;99.90;;;;;;4993396;28;20041;-70
2022/12/13 05:10:41;;;;;;;41.07;17.27;;;-5.20;99.90;;;;;;4992027;28;20089;-70
2022/12/13 05:13:06;;;;;;;36.57;17.50;;;-5.20;99.90;;;;;;5007710;28;20385;-70
2022/12/13 05:15:33;;;;;;;33.63;16.50;;;-5.90;99.90;;;;;;5016539;28;20044;-71
2022/12/13 05:18:04;;;;;;;38.63;17.07;;;-5.20;99.90;;;;;;5020490;28;20065;-71
2022/12/13 05:20:29;;;;;;;35.23;16.47;;;-5.20;99.90;;;;;;4994078;28;20058;-70
2022/12/13 05:22:56;;;;;;;37.57;17.07;;;-5.20;99.90;;;;;;4990564;28;20049;-70
2022/12/13 05:25:23;;;;;;;34.67;15.57;;;-5.20;99.90;;;;;;5009672;28;20046;-71
2022/12/13 05:27:48;;;;;;;38.77;16.93;;;-5.20;99.90;;;;;;5023900;28;20068;-71
2022/12/13 05:30:14;;;;;;;36.63;16.60;;;-5.20;99.90;;;;;;5027281;28;20397;-71
2022/12/13 05:32:40;;;;;;;32.13;16.77;;;-5.20;99.90;;;;;;4992212;28;20620;-71
2022/12/13 05:35:06;;;;;;;34.03;16.13;;;-5.30;99.90;;;;;;5009570;28;20045;-71
2022/12/13 05:37:32;;;;;;;35.73;16.73;;;-5.20;99.90;;;;;;5001988;28;20437;-70
2022/12/13 05:39:57;;;;;;;39.75;17.67;;;-5.20;99.90;;;;;;5010538;28;20100;-69
2022/12/13 05:42:23;;;;;;;38.60;17.83;;;-5.20;99.90;;;;;;5009341;28;20054;-70
2022/12/13 05:44:50;;;;;;;36.10;17.17;;;-5.20;99.90;;;;;;4991876;28;20045;-76
2022/12/13 05:47:16;;;;;;;35.70;17.60;;;-5.20;99.90;;;;;;5009602;28;20054;-71
2022/12/13 05:49:42;;;;;;;41.47;18.43;;;-5.20;99.90;;;;;;5010508;28;20256;-70
2022/12/13 05:52:16;;;;;;;34.83;17.13;;;-5.20;99.90;;;;;;5002732;28;20082;-71
2022/12/13 05:54:42;;;;;;;39.33;17.08;;;-5.20;99.90;;;;;;4991736;28;20711;-71
2022/12/13 05:57:07;;;;;;;36.50;17.10;;;-5.30;99.90;;;;;;5017175;28;20124;-71
2022/12/13 05:59:33;;;;;;;32.07;17.20;;;-5.30;99.90;;;;;;5011185;28;20057;-71
2022/12/13 06:01:59;;;;;;;35.93;17.33;;;-5.30;99.90;;;;;;5011708;28;20061;-69
2022/12/13 06:04:24;;;;;;;35.73;16.83;;;-5.30;99.90;;;;;;4994101;28;20042;-72
2022/12/13 06:06:51;;;;;;;39.87;17.80;;;-5.30;99.90;;;;;;4995537;28;20048;-70
2022/12/13 06:09:16;;;;;;;33.93;16.43;;;-5.30;99.90;;;;;;5012985;28;20073;-71
2022/12/13 06:11:42;;;;;;;42.73;17.50;;;-5.30;99.90;;;;;;4996589;28;20088;-71
2022/12/13 06:14:08;;;;;;;35.60;15.83;;;-5.30;99.90;;;;;;4995223;28;20458;-69
2022/12/13 06:16:34;;;;;;;39.17;16.67;;;-5.40;99.90;;;;;;5013807;28;20048;-71
2022/12/13 06:18:59;;;;;;;37.37;16.57;;;-5.40;99.90;;;;;;4995885;28;20793;-70
2022/12/13 06:21:25;;;;;;;30.60;16.33;;;-5.40;99.90;;;;;;4995087;28;20045;-70
2022/12/13 06:23:51;;;;;;;33.13;16.33;;;-5.40;99.90;;;;;;5012924;28;20069;-69
2022/12/13 06:26:16;;;;;;;34.53;15.70;;;-5.40;99.90;;;;;;5012826;28;20175;-76
2022/12/13 06:28:42;;;;;;;35.03;16.43;;;-5.40;99.90;;;;;;5012793;28;20420;-73
2022/12/13 06:31:07;;;;;;;35.33;16.60;;;-5.40;99.90;;;;;;5012671;28;20136;-71
2022/12/13 06:33:35;;;;;;;34.30;16.53;;;-5.40;99.90;;;;;;5012881;28;20125;-70
2022/12/13 06:36:01;;;;;;;38.70;17.43;;;-5.40;99.90;;;;;;5012036;28;20057;-76
2022/12/13 06:38:28;;;;;;;32.50;16.40;;;-5.40;99.90;;;;;;5009931;28;20425;-70
2022/12/13 06:40:53;;;;;;;35.43;17.23;;;-5.40;99.90;;;;;;5012997;28;20405;-71
2022/12/13 06:43:19;;;;;;;32.70;16.40;;;-5.40;99.90;;;;;;4995129;28;20056;-70
2022/12/13 06:45:46;;;;;;;34.53;16.63;;;-5.40;99.90;;;;;;5012543;28;20378;-70
2022/12/13 06:48:11;;;;;;;39.97;18.07;;;-5.40;99.90;;;;;;5012153;28;20058;-71
2022/12/13 06:50:37;;;;;;;33.93;16.97;;;-5.40;99.90;;;;;;4994882;28;20132;-73
2022/12/13 06:53:03;;;;;;;42.90;17.87;;;-5.40;99.90;;;;;;5011748;28;20511;-71
2022/12/13 06:55:28;;;;;;;36.90;16.90;;;-5.40;99.90;;;;;;5012489;28;20076;-69
2022/12/13 06:57:58;;;;;;;38.50;17.87;;;-5.40;99.90;;;;;;4993985;28;20084;-71
2022/12/13 07:00:24;;;;;;;38.60;16.73;;;-5.40;99.90;;;;;;5012572;28;20060;-70
2022/12/13 07:02:53;;;;;;;38.07;17.63;;;-5.40;99.90;;;;;;5012204;28;20501;-71
2022/12/13 07:05:19;;;;;;;33.47;16.07;;;-5.50;99.90;;;;;;5012212;28;20149;-70
2022/12/13 07:07:45;;;;;;;32.00;15.93;;;-5.50;99.90;;;;;;5011205;28;20037;-70
2022/12/13 07:10:10;;;;;;;36.10;17.03;;;-5.40;99.90;;;;;;4994477;28;20046;-71
2022/12/13 07:12:36;;;;;;;31.17;16.20;;;-5.50;99.90;;;;;;4994739;28;20104;-71
2022/12/13 07:15:02;;;;;;;42.67;17.47;;;-5.50;99.90;;;;;;4993895;28;20050;-72
2022/12/13 07:17:27;;;;;;;35.43;15.93;;;-5.50;99.90;;;;;;5011765;28;20049;-70
2022/12/13 07:19:53;;;;;;;34.07;17.47;;;-5.40;99.90;;;;;;5011781;28;20061;-71
2022/12/13 07:22:18;;;;;;;37.30;17.73;;;-5.40;99.90;;;;;;5011947;28;20042;-70
2022/12/13 07:24:44;;;;;;;36.67;16.27;;;-5.40;99.90;;;;;;5011967;28;20081;-70
2022/12/13 07:27:09;;;;;;;36.47;17.53;;;-5.40;99.90;;;;;;4994416;28;20045;-72
2022/12/13 07:29:36;;;;;;;39.83;18.07;;;-5.40;99.90;;;;;;4993864;28;20470;-72
2022/12/13 07:32:02;;;;;;;42.93;20.03;;;-5.40;99.90;;;;;;5001153;28;20487;-78
2022/12/13 07:34:28;;;;;;;41.33;18.87;;;-5.40;99.90;;;;;;5010919;28;20140;-71
2022/12/13 07:36:53;;;;;;;39.87;20.27;;;-5.40;99.90;;;;;;5011663;28;20053;-71
2022/12/13 07:39:19;;;;;;;37.57;19.03;;;-5.30;99.90;;;;;;4993828;28;20045;-71
2022/12/13 07:41:45;;;;;;;32.53;16.03;;;-5.30;99.90;;;;;;4994102;28;20077;-70
2022/12/13 07:44:11;;;;;;;36.70;18.00;;;-5.30;99.90;;;;;;5011619;28;20050;-72
2022/12/13 07:46:36;;;;;;;47.27;22.40;;;-5.30;99.90;;;;;;4990431;28;20056;-71
2022/12/13 07:49:03;;;;;;;51.53;22.90;;;-5.30;99.90;;;;;;4992174;28;20432;-70
2022/12/13 07:51:31;;;;;;;45.80;22.67;;;-5.30;99.90;;;;;;5006223;28;20213;-71
2022/12/13 07:53:57;;;;;;;41.53;18.73;;;-5.20;99.90;;;;;;4993584;28;20050;-70
2022/12/13 07:56:22;;;;;;;34.93;17.27;;;-5.20;99.90;;;;;;4994239;28;20430;-75
2022/12/13 07:58:48;;;;;;;36.73;17.60;;;-5.30;99.90;;;;;;4996167;28;20073;-70
2022/12/13 08:01:14;;;;;;;40.50;17.93;;;-5.30;99.90;;;;;;4999486;28;20064;-70
2022/12/13 08:03:39;;;;;;;37.13;17.10;;;-5.30;99.90;;;;;;5011175;28;20042;-71
2022/12/13 08:06:07;;;;;;;38.03;17.00;;;-5.30;99.90;;;;;;4993677;28;20424;-71
2022/12/13 08:08:33;;;;;;;42.00;17.73;;;-5.30;99.90;;;;;;5002748;28;20516;-73
2022/12/13 08:11:07;;;;;;;34.03;17.23;;;-5.30;99.90;;;;;;5010892;28;20050;-72
2022/12/13 08:13:33;;;;;;;44.40;17.65;;;-5.20;99.90;;;;;;5002786;28;20567;-71
2022/12/13 08:16:00;;;;;;;38.80;18.83;;;-5.20;99.90;;;;;;4993403;28;20056;-71
2022/12/13 08:18:28;;;;;;;40.40;17.33;;;-5.20;99.90;;;;;;5010755;28;20089;-72
2022/12/13 08:21:01;;;;;;;41.17;18.33;;;-5.20;99.90;;;;;;4992653;28;20096;-70
2022/12/13 08:23:28;;;;;;;43.83;19.37;;;-5.20;99.90;;;;;;4993091;28;20581;-72
2022/12/13 08:25:54;;;;;;;40.83;20.27;;;-5.10;99.90;;;;;;4992270;28;20054;-71
2022/12/13 08:28:21;;;;;;;40.37;19.00;;;-5.10;99.90;;;;;;5010645;28;20133;-71
2022/12/13 08:30:47;;;;;;;46.10;20.10;;;-5.00;99.90;;;;;;5009919;28;20100;-70
2022/12/13 08:33:13;;;;;;;49.47;21.50;;;-5.00;99.90;;;;;;5011292;28;20077;-70
2022/12/13 08:35:39;;;;;;;39.50;19.10;;;-5.00;99.90;;;;;;4997069;28;20108;-70
2022/12/13 08:38:05;;;;;;;38.73;19.77;;;-4.90;99.90;;;;;;5009990;28;20049;-70
2022/12/13 08:40:30;;;;;;;47.63;20.67;;;-4.90;99.90;;;;;;5013255;28;20046;-71
2022/12/13 08:42:56;;;;;;;45.47;19.13;;;-4.80;99.90;;;;;;5030183;28;20048;-70
2022/12/13 08:45:25;;;;;;;46.90;22.03;;;-4.80;99.90;;;;;;5029832;28;20084;-70
2022/12/13 08:47:52;;;;;;;38.40;20.73;;;-4.70;99.90;;;;;;5029992;28;20039;-70
2022/12/13 08:50:18;;;;;;;42.80;19.30;;;-4.70;99.90;;;;;;5022970;28;20411;-70
2022/12/13 08:52:44;;;;;;;41.87;20.30;;;-4.60;99.90;;;;;;5017608;28;20084;-70
2022/12/13 08:55:14;;;;;;;45.93;20.33;;;-4.50;99.90;;;;;;5013592;28;20337;-70
2022/12/13 08:57:40;;;;;;;50.00;22.17;;;-4.50;99.90;;;;;;4980496;28;20481;-70
2022/12/13 09:00:10;;;;;;;47.50;22.30;;;-4.40;99.90;;;;;;4990236;28;20046;-70
2022/12/13 09:02:36;;;;;;;52.83;22.67;;;-4.30;99.90;;;;;;4974952;28;20857;-71
2022/12/13 09:05:02;;;;;;;46.73;20.73;;;-4.30;99.90;;;;;;5010012;28;20117;-70
2022/12/13 09:07:28;;;;;;;45.78;21.63;;;-4.00;99.90;;;;;;5009150;28;20052;-73
2022/12/13 09:09:53;;;;;;;43.47;22.10;;;-4.20;99.90;;;;;;5020072;28;20113;-72
2022/12/13 09:12:19;;;;;;;47.33;23.20;;;-4.10;99.90;;;;;;4992285;28;20042;-70
2022/12/13 09:14:45;;;;;;;43.80;21.43;;;-4.10;99.90;;;;;;5009947;28;20034;-71
2022/12/13 09:17:13;;;;;;;45.40;21.00;;;-4.00;99.90;;;;;;4975045;28;20123;-71
2022/12/13 09:19:39;;;;;;;47.90;21.70;;;-4.00;99.90;;;;;;5028699;28;20045;-70
2022/12/13 09:22:04;;;;;;;52.45;22.33;;;-3.90;99.90;;;;;;4993289;28;20504;-69
2022/12/13 09:24:30;;;;;;;50.15;22.02;;;-3.80;99.90;;;;;;5009663;28;20050;-70
2022/12/13 09:26:56;;;;;;;45.28;21.40;;;-3.80;99.90;;;;;;5009466;28;20458;-73
2022/12/13 09:29:22;;;;;;;47.17;23.38;;;-3.70;99.90;;;;;;4991768;28;20050;-69
2022/12/13 09:31:47;;;;;;;49.30;23.75;;;-3.70;99.90;;;;;;4991653;28;20152;-71
2022/12/13 09:34:13;;;;;;;50.10;23.90;;;-3.60;99.90;;;;;;5009348;28;20046;-70
2022/12/13 09:36:38;;;;;;;53.83;23.67;;;-3.50;99.90;;;;;;5009193;28;20038;-72
2022/12/13 09:39:04;;;;;;;53.53;25.73;;;-3.40;99.90;;;;;;5012549;28;20509;-71
2022/12/13 09:41:36;;;;;;;54.30;25.10;;;-3.30;99.90;;;;;;4995727;28;20139;-71
2022/12/13 09:44:20;;;;;;;51.80;24.55;;;-3.10;99.90;;;;;;5013431;28;20117;-71
2022/12/13 09:46:48;;;;;;;57.30;24.05;;;-3.00;99.90;;;;;;5013580;28;20053;-73
2022/12/13 09:49:20;;;;;;;51.90;24.73;;;-2.80;99.90;;;;;;4995798;28;20858;-71
2022/12/13 09:51:52;;;;;;;49.92;24.70;;;-2.70;99.90;;;;;;5013800;28;20046;-71
2022/12/13 09:54:21;;;;;;;52.08;26.05;;;-2.60;99.90;;;;;;5013258;28;20057;-71
2022/12/13 09:56:51;;;;;;;54.10;25.05;;;-2.40;99.90;;;;;;5013447;28;20053;-70
2022/12/13 09:59:19;;;;;;;49.53;25.00;;;-2.30;99.90;;;;;;4995167;28;20108;-71
2022/12/13 10:01:45;;;;;;;53.38;26.90;;;-2.10;99.90;;;;;;4995357;28;20100;-72
2022/12/13 10:04:14;;;;;;;56.70;26.65;;;-2.00;99.90;;;;;;5012560;28;20414;-71
2022/12/13 10:06:40;;;;;;;60.60;27.60;;;-1.80;99.90;;;;;;4995139;28;20054;-71
2022/12/13 10:09:09;;;;;;;50.60;25.70;;;-1.60;99.90;;;;;;5012950;28;20073;-72
2022/12/13 10:11:35;;;;;;;54.38;25.63;;;-1.40;99.90;;;;;;4995333;28;20053;-75
2022/12/13 10:14:17;;;;;;;54.40;26.33;;;-1.20;99.90;;;;;;5018921;28;20507;-71
2022/12/13 10:16:47;;;;;;;47.80;23.77;;;-1.00;99.90;;;;;;5014218;28;20048;-73
2022/12/13 10:19:21;;;;;;;50.55;25.40;;;-0.90;99.90;;;;;;5030735;28;20117;-75
2022/12/13 10:21:47;;;;;;;54.40;25.33;;;-0.70;99.90;;;;;;5025599;28;20049;-70
2022/12/13 10:24:26;;;;;;;47.92;23.33;;;-0.50;99.90;;;;;;5021660;28;20061;-72
2022/12/13 10:26:53;;;;;;;49.90;25.10;;;-0.30;99.90;;;;;;5002529;28;20038;-71
2022/12/13 10:29:19;;;;;;;47.08;23.17;;;-0.20;99.90;;;;;;5009260;28;20137;-71
2022/12/13 10:31:48;;;;;;;48.65;25.02;;;0.00;99.90;;;;;;5025617;28;20045;-71
2022/12/13 10:34:27;;;;;;;39.10;22.63;;;0.10;99.90;;;;;;5032295;28;20046;-72
2022/12/13 10:36:53;;;;;;;45.20;24.33;;;0.20;99.90;;;;;;5031996;28;20034;-72
2022/12/13 10:39:42;;;;;;;41.20;22.83;;;0.40;99.90;;;;;;5032123;28;20492;-72
2022/12/13 10:42:19;;;;;;;44.75;23.63;;;0.50;99.90;;;;;;5025737;28;20057;-73
2022/12/13 10:44:45;;;;;;;45.08;22.83;;;0.60;99.90;;;;;;5005990;28;20048;-72
2022/12/13 10:47:19;;;;;;;43.10;23.30;;;0.70;99.90;;;;;;5012545;28;20057;-71
2022/12/13 10:49:53;;;;;;;41.15;23.70;;;0.80;99.90;;;;;;4993401;28;20049;-71
2022/12/13 10:52:29;;;;;;;44.38;23.20;;;1.00;99.90;;;;;;5011715;28;20496;-71
2022/12/13 10:54:57;;;;;;;40.28;22.02;;;1.10;99.90;;;;;;4994288;28;20602;-73
2022/12/13 10:57:24;;;;;;;44.17;23.85;;;1.20;99.90;;;;;;4994318;28;20072;-76
2022/12/13 10:59:50;;;;;;;42.40;21.92;;;1.30;99.90;;;;;;5011888;28;20085;-73
2022/12/13 11:02:31;;;;;;;40.53;21.35;;;1.40;99.90;;;;;;4994508;28;20065;-73
2022/12/13 11:04:58;;;;;;;40.40;21.23;;;1.50;99.90;;;;;;5011091;28;20413;-76
2022/12/13 11:07:29;;;;;;;36.65;20.85;;;1.60;99.90;;;;;;4977654;28;20046;-71
2022/12/13 11:09:57;;;;;;;37.08;21.60;;;1.70;99.90;;;;;;4994180;28;20050;-77
2022/12/13 11:12:25;;;;;;;38.58;21.02;;;1.80;99.90;;;;;;4994142;28;20062;-71
2022/12/13 11:14:59;;;;;;;34.25;20.10;;;1.90;99.90;;;;;;5011728;28;20124;-71
2022/12/13 11:17:28;;;;;;;33.67;18.67;;;1.90;99.90;;;;;;5011801;28;20057;-72
2022/12/13 11:19:56;;;;;;;37.15;20.45;;;2.00;99.90;;;;;;5011603;28;20053;-72
2022/12/13 11:22:29;;;;;;;37.78;18.90;;;2.10;99.90;;;;;;4993926;28;20042;-71
2022/12/13 11:25:02;;;;;;;33.08;18.13;;;2.20;99.90;;;;;;4994086;28;20050;-72
2022/12/13 11:27:39;;;;;;;32.17;18.20;;;2.20;99.90;;;;;;4994065;28;20092;-75
2022/12/13 11:30:11;;;;;;;30.10;17.95;;;2.30;99.90;;;;;;5011746;28;20128;-71
2022/12/13 11:33:02;;;;;;;39.42;19.90;;;2.40;99.90;;;;;;4993503;28;20057;-73
2022/12/13 11:35:42;;;;;;;36.53;18.65;;;2.60;99.90;;;;;;5011253;28;20135;-74
2022/12/13 11:38:43;;;;;;;30.83;17.98;;;2.60;99.90;;;;;;5011383;28;20473;-72
2022/12/13 11:41:17;;;;;;;32.47;18.23;;;2.60;99.90;;;;;;5011384;28;20129;-73
2022/12/13 11:43:56;;;;;;;29.77;16.87;;;2.80;99.90;;;;;;5011143;28;20057;-72
2022/12/13 11:46:35;;;;;;;31.15;17.95;;;2.80;99.90;;;;;;5010860;28;20427;-71
2022/12/13 11:49:13;;;;;;;33.60;18.25;;;2.90;99.90;;;;;;4993245;28;20038;-73
2022/12/13 11:51:49;;;;;;;28.88;17.38;;;2.90;99.90;;;;;;4991597;28;20076;-71
2022/12/13 11:54:46;;;;;;;35.42;18.55;;;3.10;99.90;;;;;;4991538;28;20061;-72
2022/12/13 11:57:35;;;;;;;30.25;17.50;;;3.20;99.90;;;;;;4973881;28;20050;-73
2022/12/13 12:00:08;;;;;;;30.17;18.63;;;3.30;99.90;;;;;;4995282;28;20052;-72
2022/12/13 12:02:38;;;;;;;36.47;18.90;;;3.30;99.90;;;;;;4993658;28;20338;-74
2022/12/13 12:05:16;;;;;;;33.92;18.45;;;3.40;99.90;;;;;;4993059;28;20061;-71
2022/12/13 12:07:50;;;;;;;28.75;17.88;;;3.50;99.90;;;;;;4992806;28;20046;-72
2022/12/13 12:10:21;;;;;;;31.35;17.55;;;3.90;99.90;;;;;;5010707;28;20049;-77
2022/12/13 12:12:57;;;;;;;27.63;16.48;;;3.50;99.90;;;;;;5010957;28;20196;-73
2022/12/13 12:15:25;;;;;;;31.48;18.05;;;3.60;99.90;;;;;;5011127;28;20121;-72
2022/12/13 12:17:51;;;;;;;27.80;16.15;;;3.60;99.90;;;;;;5011012;28;20053;-72
2022/12/13 12:20:42;;;;;;;26.95;15.23;;;3.70;99.90;;;;;;5010920;28;20053;-72
2022/12/13 12:23:17;;;;;;;29.58;16.60;;;3.80;99.90;;;;;;4992840;28;20058;-74
2022/12/13 12:25:49;;;;;;;28.08;16.20;;;3.90;99.90;;;;;;5010697;28;20052;-72
2022/12/13 12:28:41;;;;;;;28.48;16.25;;;4.00;99.90;;;;;;4992714;28;20050;-73
2022/12/13 12:31:19;;;;;;;26.50;16.17;;;4.10;99.90;;;;;;4991094;28;20617;-72
2022/12/13 12:34:00;;;;;;;27.13;16.45;;;4.10;99.90;;;;;;4988555;28;20089;-75
2022/12/13 12:36:43;;;;;;;24.17;14.73;;;4.10;99.90;;;;;;5010583;28;20739;-72
2022/12/13 12:39:21;;;;;;;29.25;15.93;;;4.20;99.90;;;;;;5010295;28;20046;-76
2022/12/13 12:42:11;;;;;;;27.25;15.82;;;4.20;99.90;;;;;;4992943;28;20050;-73
2022/12/13 12:44:46;;;;;;;23.17;15.10;;;4.20;99.90;;;;;;4979683;28;20501;-72